Time;durP1;ratioP1;P1;durP2;ratioP2;P2;SDS_P1;SDS_P2;PMS_P1;PMS_P2;Temp;Humidity;BMP_temperature;BMP_pressure;BME280_temperature;BME280_humidity;BME280_pressure;Samples;Min_cycle;Max_cycle;Signal;HPM_P1;HPM_P2
2022/12/11 00:00:19;;;;;;;7.38;4.43;;;18.40;50.50;;;;;;4908471;29;20032;-65
2022/12/11 00:02:44;;;;;;;6.95;4.45;;;18.30;50.40;;;;;;4908428;29;20079;-65
2022/12/11 00:05:10;;;;;;;7.57;4.30;;;18.40;50.50;;;;;;4911293;29;20132;-65
2022/12/11 00:07:36;;;;;;;6.35;3.83;;;18.30;50.30;;;;;;4901896;29;20416;-65
2022/12/11 00:10:02;;;;;;;6.68;4.20;;;18.40;50.30;;;;;;4912043;29;20036;-65
2022/12/11 00:12:29;;;;;;;7.05;4.28;;;18.40;50.30;;;;;;4911125;29;20066;-65
2022/12/11 00:14:55;;;;;;;6.75;4.00;;;18.40;50.20;;;;;;4912434;29;20040;-65
2022/12/11 00:17:20;;;;;;;7.03;4.40;;;18.40;50.20;;;;;;4911356;29;20051;-65
2022/12/11 00:19:46;;;;;;;8.02;4.45;;;18.30;50.10;;;;;;4910787;29;20079;-65
2022/12/11 00:22:11;;;;;;;6.80;4.10;;;18.30;50.10;;;;;;4909454;29;20044;-63
2022/12/11 00:24:37;;;;;;;7.35;3.85;;;18.40;50.10;;;;;;4912771;29;20451;-65
2022/12/11 00:27:03;;;;;;;7.65;3.83;;;18.30;50.00;;;;;;4910966;29;20456;-65
2022/12/11 00:29:29;;;;;;;7.68;4.00;;;18.30;50.10;;;;;;4912184;29;20055;-64
2022/12/11 00:31:55;;;;;;;6.88;3.95;;;18.30;50.10;;;;;;4911384;29;20063;-65
2022/12/11 00:34:20;;;;;;;6.90;3.92;;;18.30;50.10;;;;;;4910224;29;20044;-65
2022/12/11 00:36:46;;;;;;;6.57;4.05;;;18.30;50.00;;;;;;4912128;29;20527;-65
2022/12/11 00:39:11;;;;;;;6.63;3.97;;;18.40;50.10;;;;;;4909740;29;20414;-65
2022/12/11 00:41:37;;;;;;;6.32;3.95;;;18.40;50.00;;;;;;4911697;29;20076;-67
2022/12/11 00:44:03;;;;;;;5.50;3.50;;;18.40;49.90;;;;;;4893128;29;20693;-65
2022/12/11 00:46:28;;;;;;;6.70;3.72;;;18.40;50.00;;;;;;4911838;29;20051;-65
2022/12/11 00:48:54;;;;;;;6.72;3.90;;;18.40;49.90;;;;;;4909177;29;20040;-65
2022/12/11 00:51:19;;;;;;;7.45;3.95;;;18.30;49.90;;;;;;4892116;29;20066;-65
2022/12/11 00:53:45;;;;;;;6.93;3.58;;;18.30;49.90;;;;;;4890369;29;20081;-64
2022/12/11 00:56:14;;;;;;;6.25;3.85;;;18.30;49.90;;;;;;4906585;29;20036;-65
2022/12/11 00:58:40;;;;;;;8.10;3.78;;;18.30;49.90;;;;;;4909644;29;20043;-65
2022/12/11 01:01:17;;;;;;;5.43;3.60;;;18.30;49.90;;;;;;4911761;29;20036;-65
2022/12/11 01:03:44;;;;;;;7.15;3.45;;;18.30;49.90;;;;;;4911590;29;20595;-64
2022/12/11 01:06:15;;;;;;;6.38;3.67;;;18.30;49.90;;;;;;4910747;29;20044;-64
2022/12/11 01:08:44;;;;;;;5.70;3.63;;;18.30;49.80;;;;;;4909471;29;20101;-64
2022/12/11 01:11:12;;;;;;;6.10;3.30;;;18.30;49.80;;;;;;4894842;29;20051;-65
2022/12/11 01:13:39;;;;;;;5.90;3.30;;;18.40;49.80;;;;;;4909183;29;20044;-64
2022/12/11 01:16:11;;;;;;;7.03;3.58;;;18.30;49.70;;;;;;4905550;29;20040;-65
2022/12/11 01:18:37;;;;;;;5.70;3.60;;;18.30;49.70;;;;;;4906436;29;20050;-64
2022/12/11 01:21:12;;;;;;;6.15;3.55;;;18.30;49.70;;;;;;4903137;29;20128;-65
2022/12/11 01:23:38;;;;;;;4.88;3.10;;;18.30;49.70;;;;;;4907838;29;20051;-64
2022/12/11 01:26:14;;;;;;;5.35;3.38;;;18.30;49.60;;;;;;4910091;29;20036;-65
2022/12/11 01:28:41;;;;;;;4.93;3.50;;;18.30;49.60;;;;;;4910141;29;20078;-65
2022/12/11 01:31:15;;;;;;;4.22;3.20;;;18.30;49.70;;;;;;4903362;29;20048;-65
2022/12/11 01:33:41;;;;;;;4.82;3.35;;;18.30;49.70;;;;;;4909588;29;20127;-65
2022/12/11 01:36:12;;;;;;;5.57;3.10;;;18.30;49.70;;;;;;4907613;29;20067;-65
2022/12/11 01:38:38;;;;;;;5.22;3.10;;;18.30;49.60;;;;;;4906403;29;20056;-65
2022/12/11 01:41:04;;;;;;;5.32;3.50;;;18.30;49.60;;;;;;4904945;29;20067;-65
2022/12/11 01:43:30;;;;;;;4.22;2.90;;;18.20;49.60;;;;;;4909282;29;20040;-65
2022/12/11 01:45:55;;;;;;;4.88;3.03;;;18.30;49.60;;;;;;4910652;29;20040;-65
2022/12/11 01:48:28;;;;;;;5.18;3.42;;;18.30;49.50;;;;;;4907088;29;20051;-65
2022/12/11 01:50:56;;;;;;;4.63;2.83;;;18.30;49.50;;;;;;4906755;29;20063;-65
2022/12/11 01:53:25;;;;;;;;;;;18.30;49.50;;;;;;4908074;29;20044;-65
2022/12/11 01:55:54;;;;;;;5.93;3.08;;;18.30;49.50;;;;;;4910415;29;19923;-65
2022/12/11 01:58:22;;;;;;;7.78;3.70;;;18.30;49.50;;;;;;4907383;29;20543;-65
2022/12/11 02:00:48;;;;;;;4.57;2.78;;;18.30;49.50;;;;;;4911115;29;20068;-65
2022/12/11 02:03:13;;;;;;;5.22;2.80;;;18.20;49.40;;;;;;4910532;29;20123;-65
2022/12/11 02:05:39;;;;;;;4.60;2.80;;;18.30;49.50;;;;;;4908210;29;20048;-64
2022/12/11 02:08:06;;;;;;;4.50;3.15;;;18.30;49.50;;;;;;4878302;29;20635;-65
2022/12/11 02:11:07;;;;;;;5.13;2.70;;;18.30;49.50;;;;;;4908732;29;20063;-64
2022/12/11 02:14:15;;;;;;;5.20;3.38;;;18.20;49.40;;;;;;4889017;29;20097;-65
2022/12/11 02:16:49;;;;;;;3.67;2.60;;;18.30;49.40;;;;;;4851464;29;20548;-64
2022/12/11 02:19:36;;;;;;;4.65;2.95;;;18.30;49.40;;;;;;4849704;29;20068;-65
2022/12/11 02:22:07;;;;;;;4.20;2.97;;;18.30;49.40;;;;;;4883396;29;20583;-65
2022/12/11 02:24:48;;;;;;;5.55;2.97;;;18.30;49.40;;;;;;4909244;29;20497;-65
2022/12/11 02:27:31;;;;;;;5.03;2.80;;;18.30;49.30;;;;;;4906584;29;20055;-64
2022/12/11 02:30:09;;;;;;;5.10;3.00;;;18.30;49.20;;;;;;4920924;29;20055;-63
2022/12/11 02:32:44;;;;;;;5.22;2.63;;;18.40;49.20;;;;;;4908817;29;20091;-65
2022/12/11 02:35:18;;;;;;;4.88;2.70;;;18.40;49.20;;;;;;4909160;29;20523;-64
2022/12/11 02:37:48;;;;;;;5.50;2.92;;;18.40;49.20;;;;;;4909899;29;20048;-65
2022/12/11 02:40:18;;;;;;;4.25;2.63;;;18.30;49.10;;;;;;4907668;29;20183;-64
2022/12/11 02:42:46;;;;;;;3.63;2.70;;;18.40;49.20;;;;;;4908760;29;20075;-65
2022/12/11 02:45:12;;;;;;;;;;;18.40;49.10;;;;;;4907517;29;20044;-65
2022/12/11 02:47:38;;;;;;;5.05;2.83;;;18.40;49.00;;;;;;4907769;29;19985;-65
2022/12/11 02:50:09;;;;;;;4.32;2.75;;;18.40;49.00;;;;;;4908403;29;20036;-64
2022/12/11 02:52:38;;;;;;;6.60;2.90;;;18.40;49.10;;;;;;4909026;29;20059;-65
2022/12/11 02:55:06;;;;;;;;;;;18.40;49.10;;;;;;4909592;29;20047;-64
2022/12/11 02:57:47;;;;;;;6.05;3.20;;;18.30;49.00;;;;;;4907154;29;20050;-65
2022/12/11 03:00:15;;;;;;;4.70;2.83;;;18.30;49.10;;;;;;4910039;29;20059;-65
2022/12/11 03:02:41;;;;;;;4.78;3.03;;;18.40;49.10;;;;;;4914952;29;20050;-65
2022/12/11 03:05:08;;;;;;;4.82;2.63;;;18.40;49.10;;;;;;4892021;29;20040;-65
2022/12/11 03:07:37;;;;;;;4.25;2.72;;;18.40;49.00;;;;;;4908263;29;20066;-65
2022/12/11 03:10:05;;;;;;;4.10;2.63;;;18.40;49.00;;;;;;4903051;29;20028;-65
2022/12/11 03:12:35;;;;;;;4.28;2.75;;;18.40;49.10;;;;;;4891237;29;20052;-65
2022/12/11 03:15:04;;;;;;;4.25;2.60;;;18.30;49.10;;;;;;4907966;29;20135;-65
2022/12/11 03:17:41;;;;;;;5.88;3.17;;;18.30;49.10;;;;;;4908553;29;20132;-65
2022/12/11 03:20:22;;;;;;;3.55;2.40;;;18.30;49.10;;;;;;4913825;29;20051;-65
2022/12/11 03:23:02;;;;;;;4.93;2.60;;;18.40;49.20;;;;;;4906830;29;20568;-64
2022/12/11 03:25:51;;;;;;;4.07;2.75;;;18.40;49.10;;;;;;4899539;29;20036;-65
2022/12/11 03:28:21;;;;;;;4.10;2.40;;;18.30;49.00;;;;;;4907366;29;20055;-65
2022/12/11 03:30:50;;;;;;;4.53;2.08;;;18.40;49.10;;;;;;4893145;29;20451;-65
2022/12/11 03:33:30;;;;;;;3.20;2.15;;;18.40;49.00;;;;;;4890959;29;20052;-65
2022/12/11 03:36:04;;;;;;;4.47;2.75;;;18.40;49.00;;;;;;4907353;29;20112;-65
2022/12/11 03:38:41;;;;;;;3.33;2.30;;;18.40;48.90;;;;;;4908107;29;20041;-64
2022/12/11 03:41:09;;;;;;;3.15;2.38;;;18.40;49.00;;;;;;4905603;29;20044;-65
2022/12/11 03:43:36;;;;;;;5.22;2.55;;;18.40;49.00;;;;;;4906146;29;20095;-65
2022/12/11 03:46:02;;;;;;;4.05;2.50;;;18.40;49.00;;;;;;4907036;29;20047;-65
2022/12/11 03:48:32;;;;;;;4.40;2.60;;;18.40;49.00;;;;;;4907033;29;20524;-65
2022/12/11 03:50:59;;;;;;;4.70;2.53;;;18.40;48.90;;;;;;4910612;29;20059;-64
2022/12/11 03:53:26;;;;;;;4.65;2.55;;;18.40;48.90;;;;;;4908113;29;20054;-65
2022/12/11 03:55:54;;;;;;;3.38;2.35;;;18.40;48.90;;;;;;4905401;29;20602;-64
2022/12/11 03:58:19;;;;;;;3.78;2.50;;;18.40;48.90;;;;;;4906187;29;20390;-65
2022/12/11 04:00:45;;;;;;;3.75;2.60;;;18.40;48.90;;;;;;4910438;29;20047;-64
2022/12/11 04:03:14;;;;;;;3.97;2.47;;;18.40;48.90;;;;;;4906301;29;20044;-64
2022/12/11 04:05:53;;;;;;;3.50;2.30;;;18.40;49.00;;;;;;4907914;29;20111;-64
2022/12/11 04:08:20;;;;;;;3.67;2.30;;;18.40;49.70;;;;;;4906054;29;20041;-65
2022/12/11 04:10:46;;;;;;;4.50;2.45;;;18.40;48.90;;;;;;4900707;29;20117;-65
2022/12/11 04:13:12;;;;;;;3.75;2.50;;;18.30;48.90;;;;;;4905080;29;20055;-64
2022/12/11 04:15:41;;;;;;;3.78;2.30;;;18.40;48.90;;;;;;4903762;29;20032;-64
2022/12/11 04:26:24;;;;;;;3.25;2.30;;;18.30;48.90;;;;;;4908539;29;20048;-65
2022/12/11 04:28:50;;;;;;;3.10;2.08;;;18.30;48.90;;;;;;4910900;29;20049;-64
2022/12/11 04:31:18;;;;;;;3.95;2.72;;;18.30;48.90;;;;;;4895402;29;20052;-65
2022/12/11 04:33:45;;;;;;;4.00;2.42;;;18.30;48.90;;;;;;4912514;29;20040;-65
2022/12/11 04:36:12;;;;;;;3.72;2.50;;;18.30;49.70;;;;;;4911906;29;20112;-65
2022/12/11 04:38:38;;;;;;;3.45;2.35;;;18.30;49.60;;;;;;4911328;29;20509;-64
2022/12/11 04:41:06;;;;;;;3.90;2.35;;;18.40;48.90;;;;;;4902709;29;20037;-65
2022/12/11 04:43:32;;;;;;;3.78;2.47;;;18.30;48.80;;;;;;4909175;29;20032;-65
2022/12/11 04:46:13;;;;;;;3.75;2.60;;;18.40;48.90;;;;;;4910362;29;20044;-65
2022/12/11 04:48:41;;;;;;;4.95;2.22;;;18.30;48.80;;;;;;4907872;29;20036;-65
2022/12/11 04:51:08;;;;;;;3.33;2.15;;;18.30;48.80;;;;;;4909824;29;20051;-65
2022/12/11 04:53:34;;;;;;;3.35;2.08;;;18.30;49.60;;;;;;4911657;29;20374;-65
2022/12/11 04:56:03;;;;;;;3.65;2.35;;;18.30;48.80;;;;;;4910505;29;20524;-65
2022/12/11 04:58:31;;;;;;;4.18;2.38;;;18.40;48.90;;;;;;4905814;29;20071;-64
2022/12/11 05:00:57;;;;;;;3.58;2.42;;;18.30;48.70;;;;;;4913088;29;20062;-65
2022/12/11 05:03:23;;;;;;;4.22;2.20;;;18.30;48.70;;;;;;4909488;29;20036;-65
2022/12/11 05:05:50;;;;;;;3.92;2.20;;;18.30;48.70;;;;;;4911848;29;20094;-65
2022/12/11 05:08:17;;;;;;;3.50;2.28;;;18.30;48.80;;;;;;4893250;29;20048;-65
2022/12/11 05:10:43;;;;;;;4.85;2.55;;;18.30;48.80;;;;;;4893964;29;20516;-65
2022/12/11 05:13:09;;;;;;;3.53;2.25;;;18.30;48.70;;;;;;4910196;29;20048;-65
2022/12/11 05:15:37;;;;;;;4.03;2.50;;;18.40;48.70;;;;;;4908461;29;20135;-65
2022/12/11 05:18:03;;;;;;;4.15;2.50;;;18.30;48.70;;;;;;4909527;29;20062;-65
2022/12/11 05:20:29;;;;;;;4.00;2.25;;;18.30;48.70;;;;;;4908747;29;20091;-65
2022/12/11 05:22:54;;;;;;;3.50;2.30;;;18.30;48.70;;;;;;4909575;29;20500;-64
2022/12/11 05:25:20;;;;;;;3.58;2.50;;;18.30;48.70;;;;;;4910866;29;20043;-65
2022/12/11 05:27:45;;;;;;;4.00;2.63;;;18.30;48.70;;;;;;4910276;29;20060;-65
2022/12/11 05:30:11;;;;;;;3.88;2.03;;;18.30;48.70;;;;;;4907904;29;20132;-64
2022/12/11 05:32:38;;;;;;;4.30;2.30;;;18.30;48.70;;;;;;4906651;29;20404;-65
2022/12/11 05:35:04;;;;;;;4.05;2.35;;;18.30;48.60;;;;;;4909547;29;20048;-64
2022/12/11 05:37:31;;;;;;;4.55;2.50;;;18.30;48.60;;;;;;4906193;29;20481;-64
2022/12/11 05:39:56;;;;;;;3.72;2.30;;;18.30;48.70;;;;;;4911898;29;20040;-64
2022/12/11 05:42:22;;;;;;;4.53;2.67;;;18.30;48.60;;;;;;4906003;29;20048;-65
2022/12/11 05:44:48;;;;;;;3.65;2.03;;;18.30;48.60;;;;;;4908481;29;20040;-64
2022/12/11 05:47:14;;;;;;;3.22;2.33;;;18.40;48.60;;;;;;4908318;29;20071;-65
2022/12/11 05:49:39;;;;;;;5.43;2.60;;;18.40;48.60;;;;;;4909527;29;20083;-64
2022/12/11 05:52:05;;;;;;;4.35;2.03;;;18.30;48.50;;;;;;4909890;29;20055;-64
2022/12/11 05:54:30;;;;;;;3.70;2.22;;;18.30;48.60;;;;;;4908673;29;20044;-65
2022/12/11 05:56:56;;;;;;;3.80;2.38;;;18.30;48.50;;;;;;4891314;29;20579;-65
2022/12/11 05:59:21;;;;;;;3.10;2.33;;;18.30;48.50;;;;;;4909421;29;20116;-64
2022/12/11 06:01:47;;;;;;;3.72;2.40;;;18.40;48.50;;;;;;4909912;29;20108;-65
2022/12/11 06:04:13;;;;;;;5.30;2.50;;;18.40;48.60;;;;;;4909231;29;20048;-65
2022/12/11 06:06:39;;;;;;;3.70;2.42;;;18.40;48.50;;;;;;4891829;29;20353;-64
2022/12/11 06:09:05;;;;;;;4.03;2.42;;;18.30;48.40;;;;;;4910058;29;20031;-64
2022/12/11 06:11:32;;;;;;;4.07;2.47;;;18.40;48.50;;;;;;4906738;29;20086;-65
2022/12/11 06:13:59;;;;;;;3.85;2.55;;;18.40;48.50;;;;;;4909536;29;20047;-65
2022/12/11 06:16:26;;;;;;;3.97;2.25;;;18.40;48.50;;;;;;4908819;29;20885;-65
2022/12/11 06:18:52;;;;;;;4.13;2.70;;;18.30;48.40;;;;;;4909985;29;20599;-64
2022/12/11 06:21:24;;;;;;;4.13;2.30;;;18.40;48.50;;;;;;4905280;29;20119;-65
2022/12/11 06:23:52;;;;;;;4.07;2.75;;;18.40;48.50;;;;;;4908605;29;20060;-65
2022/12/11 06:26:18;;;;;;;3.88;2.20;;;18.40;48.50;;;;;;4909772;29;20044;-64
2022/12/11 06:28:45;;;;;;;3.15;2.15;;;18.30;48.40;;;;;;4910357;29;20389;-65
2022/12/11 06:31:11;;;;;;;3.78;2.20;;;18.30;48.40;;;;;;4909907;29;20035;-65
2022/12/11 06:33:37;;;;;;;3.58;2.30;;;18.30;48.40;;;;;;4908586;29;20051;-64
2022/12/11 06:36:04;;;;;;;3.40;2.20;;;18.30;48.40;;;;;;4909765;29;20028;-64
2022/12/11 06:38:30;;;;;;;4.30;2.40;;;18.30;48.40;;;;;;4909078;29;20429;-64
2022/12/11 06:40:57;;;;;;;3.92;2.15;;;18.30;48.40;;;;;;4906818;29;20066;-65
2022/12/11 06:43:24;;;;;;;3.25;1.98;;;18.30;48.50;;;;;;4907195;29;20396;-65
2022/12/11 06:45:49;;;;;;;3.22;2.10;;;18.40;48.50;;;;;;4908281;29;20471;-64
2022/12/11 06:48:15;;;;;;;3.85;2.42;;;18.30;48.40;;;;;;4910210;29;20071;-66
2022/12/11 06:50:41;;;;;;;3.30;2.20;;;18.40;48.50;;;;;;4907745;29;20111;-65
2022/12/11 06:53:10;;;;;;;3.60;2.13;;;18.40;48.50;;;;;;4905953;29;20143;-64
2022/12/11 06:55:40;;;;;;;3.78;2.20;;;18.30;48.40;;;;;;4900831;29;20043;-71
2022/12/11 06:58:06;;;;;;;5.50;2.60;;;18.40;48.50;;;;;;4902565;29;20056;-64
2022/12/11 07:00:34;;;;;;;4.80;2.40;;;18.30;48.40;;;;;;4909521;29;20036;-64
2022/12/11 07:03:00;;;;;;;2.92;1.92;;;18.40;48.50;;;;;;4907810;29;20075;-64
2022/12/11 07:05:25;;;;;;;4.28;2.30;;;18.40;48.50;;;;;;4908247;29;20086;-65
2022/12/11 07:07:54;;;;;;;4.57;2.50;;;18.30;48.40;;;;;;4908039;29;20084;-64
2022/12/11 07:10:23;;;;;;;7.30;2.63;;;18.40;48.50;;;;;;4909402;29;20153;-65
2022/12/11 07:12:51;;;;;;;5.10;2.05;;;18.40;48.60;;;;;;4906323;29;20048;-67
2022/12/11 07:15:17;;;;;;;4.22;2.40;;;18.40;48.80;;;;;;4891188;29;20440;-65
2022/12/11 07:17:45;;;;;;;;;;;18.40;49.00;;;;;;4896100;29;20063;-64
2022/12/11 07:20:11;;;;;;;7.35;2.63;;;18.40;49.20;;;;;;4892803;29;19950;-64
2022/12/11 07:22:37;;;;;;;3.58;2.15;;;18.40;48.90;;;;;;4907293;29;20044;-66
2022/12/11 07:25:03;;;;;;;4.53;2.60;;;18.40;48.90;;;;;;4890488;29;20047;-65
2022/12/11 07:27:28;;;;;;;5.80;2.55;;;18.40;48.90;;;;;;4907187;29;20530;-64
2022/12/11 07:29:54;;;;;;;8.30;2.70;;;18.40;48.80;;;;;;4906131;29;20509;-65
2022/12/11 07:32:20;;;;;;;6.53;2.33;;;18.40;49.00;;;;;;4910321;29;20122;-66
2022/12/11 07:34:47;;;;;;;5.47;2.53;;;18.40;48.90;;;;;;4907566;29;20048;-65
2022/12/11 07:37:13;;;;;;;5.45;2.50;;;18.50;49.00;;;;;;4906070;29;20079;-65
2022/12/11 07:39:39;;;;;;;6.88;2.60;;;18.50;48.90;;;;;;4905263;29;20741;-66
2022/12/11 07:42:05;;;;;;;5.28;2.50;;;18.50;48.80;;;;;;4906439;29;20039;-65
2022/12/11 07:44:33;;;;;;;7.55;2.80;;;18.50;48.80;;;;;;4907837;29;20044;-66
2022/12/11 07:46:59;;;;;;;4.22;2.45;;;18.50;48.90;;;;;;4883286;29;20080;-73
2022/12/11 07:49:24;;;;;;;4.65;2.42;;;18.50;49.70;;;;;;4869580;29;20079;-68
2022/12/11 07:51:50;;;;;;;5.57;2.83;;;18.50;49.00;;;;;;4885676;29;20036;-69
2022/12/11 07:54:16;;;;;;;4.47;2.50;;;18.50;49.10;;;;;;4907668;29;20036;-68
2022/12/11 07:56:43;;;;;;;3.88;2.47;;;18.40;49.10;;;;;;4907616;29;20052;-67
2022/12/11 07:59:10;;;;;;;4.97;2.65;;;18.40;49.10;;;;;;4905413;29;20047;-68
2022/12/11 08:01:36;;;;;;;7.72;2.72;;;18.40;49.20;;;;;;4875270;29;20083;-68
2022/12/11 08:04:08;;;;;;;4.40;2.70;;;18.40;49.20;;;;;;4875586;29;20500;-68
2022/12/11 08:06:35;;;;;;;7.80;4.93;;;18.40;49.30;;;;;;4892031;29;20055;-68
2022/12/11 08:09:03;;;;;;;13.35;5.90;;;18.40;49.50;;;;;;4902710;29;20047;-69
2022/12/11 08:11:29;;;;;;;9.52;5.50;;;18.40;49.80;;;;;;4905864;29;20496;-70
2022/12/11 08:13:55;;;;;;;8.40;5.07;;;18.40;50.00;;;;;;4886921;29;20047;-69
2022/12/11 08:16:22;;;;;;;11.82;5.53;;;18.40;50.20;;;;;;4908389;29;20207;-69
2022/12/11 08:18:48;;;;;;;10.18;4.85;;;18.40;50.40;;;;;;4889805;29;20048;-70
2022/12/11 08:21:16;;;;;;;7.55;4.50;;;18.40;50.50;;;;;;4906573;29;20044;-68
2022/12/11 08:23:42;;;;;;;;;;;18.40;50.60;;;;;;4889813;29;20055;-69
2022/12/11 08:26:12;;;;;;;12.18;5.00;;;18.50;50.60;;;;;;4904741;29;20767;-69
2022/12/11 08:28:37;;;;;;;9.95;4.88;;;18.50;50.60;;;;;;4905579;29;21021;-69
2022/12/11 08:31:05;;;;;;;9.68;4.80;;;18.40;50.60;;;;;;4904841;29;20036;-70
2022/12/11 08:33:31;;;;;;;9.88;4.65;;;18.40;50.60;;;;;;4890735;29;20587;-70
2022/12/11 08:35:57;;;;;;;7.05;4.43;;;18.50;50.80;;;;;;4889594;29;20048;-70
2022/12/11 08:38:22;;;;;;;7.15;4.53;;;18.50;50.70;;;;;;4893129;29;20052;-69
2022/12/11 08:40:48;;;;;;;8.50;4.57;;;18.60;50.80;;;;;;4892154;29;20040;-69
2022/12/11 08:43:14;;;;;;;6.57;4.15;;;18.60;50.70;;;;;;4907925;29;20079;-69
2022/12/11 08:45:39;;;;;;;8.40;4.80;;;18.60;50.70;;;;;;4909434;29;20051;-69
2022/12/11 08:48:05;;;;;;;11.00;4.88;;;18.60;50.70;;;;;;4910322;29;20032;-69
2022/12/11 08:50:30;;;;;;;7.20;4.45;;;18.60;50.60;;;;;;4913227;29;20086;-68
2022/12/11 08:52:57;;;;;;;8.20;4.43;;;18.60;50.60;;;;;;4921075;29;20055;-67
2022/12/11 08:55:23;;;;;;;10.05;4.32;;;18.60;50.60;;;;;;4914425;29;20040;-68
2022/12/11 08:57:48;;;;;;;10.00;5.20;;;18.60;50.60;;;;;;4894421;29;20099;-68
2022/12/11 09:00:14;;;;;;;9.63;4.45;;;18.60;50.60;;;;;;4893921;29;20052;-68
2022/12/11 09:02:40;;;;;;;8.25;5.25;;;18.60;50.60;;;;;;4879764;29;20060;-69
2022/12/11 09:05:08;;;;;;;9.07;4.82;;;18.70;50.60;;;;;;4893432;29;20044;-69
2022/12/11 09:07:35;;;;;;;11.18;5.05;;;18.60;50.50;;;;;;4905549;29;20059;-71
2022/12/11 09:10:01;;;;;;;7.13;4.35;;;18.60;50.30;;;;;;4888817;29;20103;-67
2022/12/11 09:12:27;;;;;;;6.85;4.10;;;18.70;50.40;;;;;;4889279;29;20436;-68
2022/12/11 09:14:54;;;;;;;59.05;15.35;;;18.70;50.40;;;;;;4903672;29;20048;-67
2022/12/11 09:17:19;;;;;;;46.67;13.13;;;18.70;50.30;;;;;;4906896;29;20067;-67
2022/12/11 09:19:48;;;;;;;36.05;12.32;;;18.70;50.40;;;;;;4889887;29;20044;-67
2022/12/11 09:22:13;;;;;;;33.20;10.32;;;18.70;50.40;;;;;;4872290;29;20057;-66
2022/12/11 09:24:39;;;;;;;28.75;9.43;;;18.70;50.40;;;;;;4867024;29;20052;-67
2022/12/11 09:27:05;;;;;;;21.48;8.35;;;18.80;50.50;;;;;;4878961;29;20559;-67
2022/12/11 09:29:31;;;;;;;30.00;9.15;;;18.70;50.40;;;;;;4867104;29;20572;-68
2022/12/11 09:31:57;;;;;;;23.17;7.60;;;18.80;50.50;;;;;;4866196;29;20564;-68
2022/12/11 09:34:23;;;;;;;23.10;8.38;;;18.80;50.50;;;;;;4868127;29;20121;-67
2022/12/11 09:36:49;;;;;;;29.40;8.45;;;18.80;50.40;;;;;;4867073;29;20029;-69
2022/12/11 09:39:16;;;;;;;23.35;7.65;;;18.80;50.40;;;;;;4861482;29;20108;-67
2022/12/11 09:41:51;;;;;;;19.50;7.80;;;18.80;50.40;;;;;;4865065;29;20044;-66
2022/12/11 09:44:40;;;;;;;19.65;7.78;;;18.90;50.40;;;;;;4863630;29;20049;-67
2022/12/11 09:47:23;;;;;;;18.95;7.35;;;18.90;50.40;;;;;;4864399;29;20049;-68
2022/12/11 09:49:56;;;;;;;22.75;7.85;;;18.90;51.20;;;;;;4863809;29;20057;-67
2022/12/11 09:52:56;;;;;;;20.55;7.18;;;18.90;50.40;;;;;;4861535;29;20041;-67
2022/12/11 09:55:24;;;;;;;24.70;7.70;;;18.90;50.30;;;;;;4864829;29;20071;-67
2022/12/11 09:58:10;;;;;;;25.65;7.78;;;18.90;50.30;;;;;;4865565;29;20076;-67
2022/12/11 10:01:02;;;;;;;19.48;7.40;;;18.90;50.30;;;;;;4867014;29;20048;-66
2022/12/11 10:03:49;;;;;;;14.88;6.55;;;18.90;50.30;;;;;;4861521;29;20064;-68
2022/12/11 10:06:20;;;;;;;17.70;6.88;;;19.00;50.20;;;;;;4857503;29;20066;-67
2022/12/11 10:09:06;;;;;;;17.73;7.13;;;19.00;50.30;;;;;;4864038;29;20100;-67
2022/12/11 10:12:00;;;;;;;17.95;7.05;;;18.90;50.20;;;;;;4866423;29;20721;-67
2022/12/11 10:14:58;;;;;;;17.08;6.38;;;19.00;50.20;;;;;;4844843;29;20865;-69
2022/12/11 10:17:32;;;;;;;21.45;7.00;;;19.00;50.20;;;;;;4867848;29;20065;-67
2022/12/11 10:20:19;;;;;;;15.75;6.47;;;19.00;50.20;;;;;;4867182;29;20087;-69
2022/12/11 10:22:45;;;;;;;20.92;6.95;;;19.00;50.20;;;;;;4866298;29;20055;-67
2022/12/11 10:25:30;;;;;;;15.15;6.32;;;19.00;50.20;;;;;;4866265;29;20053;-67
2022/12/11 10:27:56;;;;;;;18.52;6.25;;;19.00;50.10;;;;;;4887732;29;20055;-68
2022/12/11 10:30:29;;;;;;;20.30;6.65;;;19.00;50.20;;;;;;4903495;29;20048;-67
2022/12/11 10:33:10;;;;;;;15.75;5.63;;;19.10;50.20;;;;;;4884382;29;20325;-67
2022/12/11 10:35:36;;;;;;;14.02;5.80;;;19.10;50.10;;;;;;4903846;29;20127;-67
2022/12/11 10:38:25;;;;;;;17.30;6.25;;;19.00;50.10;;;;;;4918027;29;20135;-68
2022/12/11 10:40:58;;;;;;;13.07;5.68;;;19.10;50.10;;;;;;4901054;29;20231;-67
2022/12/11 10:43:43;;;;;;;15.48;6.60;;;19.00;50.10;;;;;;4901518;29;20048;-68
2022/12/11 10:46:17;;;;;;;12.57;5.47;;;19.10;50.10;;;;;;4900476;29;20576;-68
2022/12/11 10:49:00;;;;;;;17.73;6.00;;;19.10;50.10;;;;;;4918000;29;20374;-69
2022/12/11 10:51:33;;;;;;;13.95;5.32;;;19.10;50.10;;;;;;4899258;29;20052;-68
2022/12/11 10:54:07;;;;;;;13.35;5.57;;;19.10;50.10;;;;;;4897206;29;20052;-67
2022/12/11 10:56:34;;;;;;;14.55;5.55;;;19.10;50.10;;;;;;4885399;29;20047;-66
2022/12/11 10:59:00;;;;;;;17.17;5.90;;;19.10;50.10;;;;;;4904277;29;20044;-67
2022/12/11 11:01:29;;;;;;;12.88;5.13;;;19.10;50.10;;;;;;4904408;29;20659;-67
2022/12/11 11:04:05;;;;;;;11.75;5.40;;;19.10;50.00;;;;;;4915384;29;20053;-67
2022/12/11 11:06:32;;;;;;;13.07;5.70;;;19.10;50.00;;;;;;4881042;29;20102;-67
2022/12/11 11:09:00;;;;;;;12.70;5.28;;;19.10;50.00;;;;;;4896414;29;22168;-66
2022/12/11 11:11:37;;;;;;;16.23;5.97;;;19.10;49.90;;;;;;4897244;29;20040;-67
2022/12/11 11:14:06;;;;;;;13.48;5.40;;;19.10;49.90;;;;;;4901147;29;20056;-68
2022/12/11 11:16:38;;;;;;;11.40;4.97;;;19.10;49.90;;;;;;4900700;29;20535;-68
2022/12/11 11:19:04;;;;;;;12.75;5.30;;;19.10;49.80;;;;;;4883441;29;20567;-67
2022/12/11 11:21:31;;;;;;;10.77;4.90;;;19.10;49.80;;;;;;4885932;29;20063;-66
2022/12/11 11:23:57;;;;;;;11.75;4.97;;;19.10;49.80;;;;;;4866739;29;20120;-67
2022/12/11 11:26:23;;;;;;;11.35;5.28;;;19.10;49.80;;;;;;4902569;29;20507;-68
2022/12/11 11:28:56;;;;;;;11.32;5.07;;;19.10;49.70;;;;;;4906193;29;20044;-69
2022/12/11 11:31:33;;;;;;;11.65;4.97;;;19.10;49.60;;;;;;4889039;29;20067;-69
2022/12/11 11:34:15;;;;;;;11.23;5.10;;;19.10;49.60;;;;;;4891310;29;20043;-69
2022/12/11 11:36:40;;;;;;;8.15;4.47;;;19.10;49.70;;;;;;4907903;29;20075;-69
2022/12/11 11:39:24;;;;;;;9.57;4.65;;;19.10;49.80;;;;;;4907952;29;20127;-69
2022/12/11 11:41:59;;;;;;;12.80;5.10;;;19.10;49.80;;;;;;4921238;29;20052;-68
2022/12/11 11:44:55;;;;;;;11.85;5.25;;;19.10;49.80;;;;;;4906413;29;20055;-69
2022/12/11 11:47:30;;;;;;;8.48;4.47;;;19.10;49.80;;;;;;4906148;29;20036;-68
2022/12/11 11:50:15;;;;;;;10.27;4.40;;;19.10;49.90;;;;;;4905226;29;20045;-68
2022/12/11 11:53:08;;;;;;;11.25;4.50;;;19.10;49.80;;;;;;4905498;29;20060;-68
2022/12/11 11:55:54;;;;;;;9.20;4.85;;;19.10;49.90;;;;;;4902296;29;20048;-68
2022/12/11 11:58:42;;;;;;;12.82;4.60;;;19.10;50.10;;;;;;4902348;29;20036;-70
2022/12/11 12:01:16;;;;;;;10.57;4.72;;;19.10;50.50;;;;;;4889299;29;20417;-69
2022/12/11 12:03:42;;;;;;;9.65;4.55;;;19.20;50.70;;;;;;4907608;29;20047;-67
2022/12/11 12:06:30;;;;;;;9.05;4.50;;;19.20;50.90;;;;;;4909624;29;20099;-70
2022/12/11 12:09:31;;;;;;;11.80;4.95;;;19.20;51.20;;;;;;4906337;29;20500;-70
2022/12/11 12:12:25;;;;;;;10.40;4.70;;;19.20;51.30;;;;;;4888224;29;20048;-68
2022/12/11 12:15:09;;;;;;;9.10;4.55;;;19.20;51.40;;;;;;4919444;29;20442;-69
2022/12/11 12:17:54;;;;;;;9.70;4.32;;;19.20;51.30;;;;;;4888842;29;20048;-70
2022/12/11 12:20:51;;;;;;;12.50;4.40;;;19.20;51.30;;;;;;4905925;29;20493;-67
2022/12/11 12:23:19;;;;;;;9.55;4.30;;;19.20;51.30;;;;;;4887990;29;20111;-70
2022/12/11 12:25:53;;;;;;;;;;;19.20;51.20;;;;;;4918434;29;20051;-69
2022/12/11 12:29:00;;;;;;;10.63;4.32;;;19.20;51.30;;;;;;4904618;29;20363;-69
2022/12/11 12:31:52;;;;;;;8.32;4.10;;;19.20;51.30;;;;;;4856584;29;20114;-69
2022/12/11 12:34:42;;;;;;;7.97;4.43;;;19.20;51.30;;;;;;4905201;29;20055;-69
2022/12/11 12:37:31;;;;;;;8.88;3.67;;;19.20;51.30;;;;;;4903904;29;20048;-69
2022/12/11 12:40:25;;;;;;;9.18;3.95;;;19.20;51.30;;;;;;4905330;29;20683;-69
2022/12/11 12:43:13;;;;;;;9.60;4.07;;;19.30;51.30;;;;;;4904576;29;20657;-67
2022/12/11 12:46:02;;;;;;;5.90;3.75;;;19.20;51.10;;;;;;4905411;29;20047;-68
2022/12/11 12:48:28;;;;;;;6.72;3.90;;;19.20;50.60;;;;;;4905800;29;20044;-69
2022/12/11 12:50:54;;;;;;;9.40;4.10;;;19.20;50.60;;;;;;4888741;29;20063;-70
2022/12/11 12:53:24;;;;;;;10.13;4.07;;;19.20;50.70;;;;;;4905707;29;20084;-67
2022/12/11 12:55:51;;;;;;;8.55;3.97;;;19.20;50.50;;;;;;4918826;29;20051;-68
2022/12/11 12:58:29;;;;;;;7.50;3.85;;;19.20;50.40;;;;;;4888474;29;20043;-66
2022/12/11 13:01:07;;;;;;;9.80;4.25;;;19.20;50.30;;;;;;4909027;29;20044;-67
2022/12/11 13:03:48;;;;;;;12.65;4.28;;;19.20;50.20;;;;;;4893364;29;20048;-69
2022/12/11 13:06:13;;;;;;;8.30;3.78;;;19.20;50.30;;;;;;4908625;29;20511;-70
2022/12/11 13:08:47;;;;;;;9.07;4.00;;;19.20;50.30;;;;;;4921789;29;20040;-66
2022/12/11 13:11:15;;;;;;;6.35;3.63;;;19.20;50.20;;;;;;4911135;29;20048;-66